首页
METAR-TAF:

METAR-TAF

机场 :

Pratica di Mare, 意大利

纬度: 41-39N, 经度: 012-27E, 海拔: 6米

当前天气观测

该预报发布于1小时和14分钟前的00:55 UTC
风速7节,风向
温度 8°C
湿度 87%
气压 1025 hPa
能见度10公里或以上
1500米以下无云,无积雨云

METAR: LIRE 070055Z 01007KT CAVOK 08/06 Q1025 RMK SKC VIS MIN 9999 WIND THR13 02004KT WIND THR31 03005KT BLU

时间: 04:09 (02:09 UTC)

预报

该预报发布于3小时和9分钟前的23:00 UTC
预报有效从07日的 00点(UTC)到 07日的 09点(UTC)
风速6节,风向北转东北
能见度10公里或以上
1500米以下无云,无积雨云

TAF: LIRE 062300Z 0700/0709 03006KT CAVOK

超过4000个机场的气象观测和天气预报(METAR&TAF报告)。

可查询的气象台以黄色和红色小点在地图上表示。

将鼠标移到小点上方,可查看气象台名称。

然后点击查看天气观测和预报。

如需切换地图:点击带黑十字的绿色按钮放大地图;点击带横线的绿色按钮缩小地图;或者点击绿色箭头查看邻近地区的地图。


METAR-TAF: